Time;durP1;ratioP1;P1;durP2;ratioP2;P2;SDS_P1;SDS_P2;PMS_P1;PMS_P2;Temp;Humidity;BMP_temperature;BMP_pressure;BME280_temperature;BME280_humidity;BME280_pressure;Samples;Min_cycle;Max_cycle;Signal;HPM_P1;HPM_P2
2023/12/10 00:00:20;;;;;;;1.00;1.00;;;6.60;99.90;;;;;;5063924;28;20656;-79
2023/12/10 00:02:47;;;;;;;1.37;1.23;;;6.50;99.90;;;;;;5065586;28;20282;-79
2023/12/10 00:05:14;;;;;;;1.77;1.17;;;6.40;99.90;;;;;;5069529;28;20289;-79
2023/12/10 00:07:42;;;;;;;1.03;1.03;;;6.40;99.90;;;;;;5065673;28;20202;-79
2023/12/10 00:10:09;;;;;;;1.30;1.20;;;6.40;99.90;;;;;;5066079;28;20846;-79
2023/12/10 00:12:36;;;;;;;1.27;1.00;;;6.50;99.90;;;;;;5068024;28;20646;-79
2023/12/10 00:15:03;;;;;;;2.53;1.27;;;6.40;99.90;;;;;;5069776;28;20637;-79
2023/12/10 00:17:30;;;;;;;1.80;1.70;;;6.50;99.90;;;;;;5068493;28;20198;-79
2023/12/10 00:19:57;;;;;;;2.50;1.93;;;6.60;99.90;;;;;;5055819;28;20667;-80
2023/12/10 00:22:24;;;;;;;2.67;2.43;;;6.60;99.90;;;;;;5066313;28;20314;-80
2023/12/10 00:24:52;;;;;;;4.17;2.40;;;6.60;99.90;;;;;;5068940;28;20237;-79
2023/12/10 00:27:19;;;;;;;4.70;2.83;;;6.70;99.90;;;;;;5066073;28;20206;-79
2023/12/10 00:29:46;;;;;;;4.80;2.70;;;6.80;99.90;;;;;;5066454;28;20226;-80
2023/12/10 00:32:13;;;;;;;4.77;3.43;;;6.70;99.90;;;;;;5070925;28;20195;-80
2023/12/10 00:34:40;;;;;;;8.83;3.83;;;6.80;99.90;;;;;;5065421;28;20644;-79
2023/12/10 00:37:06;;;;;;;10.70;4.57;;;6.80;99.90;;;;;;5064170;28;20293;-81
2023/12/10 00:39:33;;;;;;;10.00;5.03;;;7.00;99.90;;;;;;5067373;28;20598;-79
2023/12/10 00:42:01;;;;;;;14.17;5.83;;;7.00;99.90;;;;;;5063490;28;20225;-80
2023/12/10 00:44:28;;;;;;;12.53;5.80;;;7.10;99.90;;;;;;5056214;28;20294;-80
2023/12/10 00:46:55;;;;;;;14.57;6.40;;;7.10;99.90;;;;;;5060843;28;20262;-81
2023/12/10 00:49:22;;;;;;;14.20;6.07;;;7.30;99.90;;;;;;5063496;28;20279;-79
2023/12/10 00:51:49;;;;;;;12.67;5.70;;;7.40;99.90;;;;;;5058367;28;20199;-80
2023/12/10 00:54:16;;;;;;;10.23;5.20;;;7.50;99.90;;;;;;5064302;28;20202;-80
2023/12/10 00:56:43;;;;;;;12.53;5.17;;;7.50;99.90;;;;;;5063139;28;20294;-80
2023/12/10 00:59:11;;;;;;;9.30;4.47;;;7.40;99.90;;;;;;5066240;28;20302;-80
2023/12/10 01:01:38;;;;;;;14.17;4.93;;;7.40;99.90;;;;;;5058693;28;20305;-80
2023/12/10 01:04:05;;;;;;;13.10;6.07;;;7.40;99.90;;;;;;5064010;28;20286;-80
2023/12/10 01:06:32;;;;;;;14.30;5.40;;;7.50;99.90;;;;;;5062195;28;20567;-79
2023/12/10 01:08:58;;;;;;;13.60;5.20;;;7.60;99.90;;;;;;5064873;28;20290;-80
2023/12/10 01:11:25;;;;;;;18.93;5.57;;;7.60;99.90;;;;;;5071407;28;20708;-81
2023/12/10 01:13:52;;;;;;;14.47;4.77;;;7.70;99.90;;;;;;5064202;28;20661;-80
2023/12/10 01:16:20;;;;;;;16.33;5.60;;;7.70;99.90;;;;;;5067878;28;20260;-81
2023/12/10 01:18:47;;;;;;;19.07;6.10;;;7.80;99.90;;;;;;5064113;28;20252;-80
2023/12/10 01:21:14;;;;;;;16.53;4.87;;;7.90;99.90;;;;;;5065904;28;21197;-79
2023/12/10 01:23:41;;;;;;;14.53;4.80;;;8.00;99.90;;;;;;5069035;28;20722;-79
2023/12/10 01:26:12;;;;;;;15.63;5.20;;;8.00;99.90;;;;;;5066060;28;20207;-79
2023/12/10 01:28:39;;;;;;;16.90;4.40;;;8.00;99.90;;;;;;5069193;28;20198;-80
2023/12/10 01:31:06;;;;;;;13.83;4.90;;;8.00;99.90;;;;;;5069474;28;20260;-79
2023/12/10 01:33:35;;;;;;;15.10;5.20;;;8.00;99.90;;;;;;5073936;28;20236;-79
2023/12/10 01:36:01;;;;;;;17.73;4.47;;;8.10;99.90;;;;;;5057558;28;20202;-79
2023/12/10 01:38:28;;;;;;;13.70;3.83;;;8.00;99.90;;;;;;5056673;28;20207;-79
2023/12/10 01:40:55;;;;;;;21.53;4.67;;;8.10;99.90;;;;;;5062304;28;20322;-81
2023/12/10 01:43:22;;;;;;;15.30;4.27;;;8.20;99.90;;;;;;5063744;28;20200;-80
2023/12/10 01:45:52;;;;;;;15.30;4.37;;;8.10;99.90;;;;;;5065483;28;20202;-79
2023/12/10 01:48:21;;;;;;;16.07;4.40;;;8.10;99.90;;;;;;5057490;28;20285;-79
2023/12/10 01:50:50;;;;;;;16.93;4.17;;;8.10;99.90;;;;;;5063913;28;20231;-79
2023/12/10 01:53:17;;;;;;;19.83;4.80;;;8.10;99.90;;;;;;5070087;28;20286;-79
2023/12/10 01:55:45;;;;;;;19.93;4.23;;;8.10;99.90;;;;;;5058971;28;20249;-79
2023/12/10 01:58:13;;;;;;;15.33;3.67;;;8.20;99.90;;;;;;5066002;28;20255;-81
2023/12/10 02:00:40;;;;;;;11.70;3.50;;;8.10;99.90;;;;;;5060407;28;20301;-80
2023/12/10 02:03:08;;;;;;;12.57;3.57;;;8.10;99.90;;;;;;5066861;28;20218;-80
2023/12/10 02:05:35;;;;;;;19.67;5.13;;;8.10;99.90;;;;;;5063387;28;20213;-80
2023/12/10 02:08:04;;;;;;;16.27;4.20;;;8.10;99.90;;;;;;5066656;28;20198;-80
2023/12/10 02:10:31;;;;;;;22.83;5.00;;;8.20;99.90;;;;;;5063521;28;20257;-79
2023/12/10 02:12:58;;;;;;;21.03;4.70;;;8.30;99.90;;;;;;5067663;28;20201;-80
2023/12/10 02:15:28;;;;;;;21.00;4.07;;;8.30;4.20;;;;;;5067312;28;20195;-79
2023/12/10 02:17:55;;;;;;;18.87;3.33;;;8.40;1.00;;;;;;5067004;28;20199;-79
2023/12/10 02:20:22;;;;;;;17.57;3.63;;;8.40;1.00;;;;;;5065283;28;20248;-81
2023/12/10 02:22:55;;;;;;;20.23;4.43;;;8.30;99.90;;;;;;5066248;28;20310;-79
2023/12/10 02:25:31;;;;;;;18.07;3.23;;;8.20;99.90;;;;;;5062741;28;20613;-81
2023/12/10 02:27:58;;;;;;;22.23;4.20;;;8.30;1.00;;;;;;5067728;28;20241;-80
2023/12/10 02:30:26;;;;;;;22.27;4.70;;;8.20;1.00;;;;;;5071496;28;20214;-79
2023/12/10 02:32:53;;;;;;;19.03;4.03;;;8.10;1.00;;;;;;5070585;28;20194;-79
2023/12/10 02:35:19;;;;;;;18.17;4.43;;;8.10;1.00;;;;;;5067310;28;20294;-80
2023/12/10 02:37:46;;;;;;;17.10;4.13;;;8.20;99.90;;;;;;5072301;28;20652;-80
2023/12/10 02:40:13;;;;;;;23.73;4.13;;;8.30;70.60;;;;;;5061545;28;20218;-79
2023/12/10 02:42:42;;;;;;;22.60;4.20;;;8.30;1.00;;;;;;5059944;28;20325;-80
2023/12/10 02:45:09;;;;;;;17.53;4.33;;;8.30;1.00;;;;;;5063871;28;20290;-80
2023/12/10 02:47:37;;;;;;;19.20;4.20;;;8.30;1.00;;;;;;5056681;28;20221;-79
2023/12/10 02:50:05;;;;;;;20.80;4.43;;;8.20;1.00;;;;;;5070185;28;20234;-81
2023/12/10 02:52:33;;;;;;;20.50;4.33;;;8.40;99.90;;;;;;5060288;28;20649;-79
2023/12/10 02:55:00;;;;;;;17.47;4.13;;;8.40;1.00;;;;;;5060836;28;20289;-80
2023/12/10 02:57:27;;;;;;;18.37;5.73;;;8.30;1.00;;;;;;5059310;28;20244;-79
2023/12/10 02:59:55;;;;;;;21.87;5.00;;;8.30;1.00;;;;;;5063343;28;20225;-81
2023/12/10 03:02:22;;;;;;;24.03;5.93;;;8.50;99.90;;;;;;5061130;28;20305;-80
2023/12/10 03:04:49;;;;;;;23.37;6.37;;;8.40;96.20;;;;;;5062479;28;20233;-81
2023/12/10 03:07:16;;;;;;;19.77;4.73;;;8.50;1.00;;;;;;5068904;28;20570;-79
2023/12/10 03:09:44;;;;;;;26.33;5.47;;;8.40;1.00;;;;;;5067001;28;20217;-80
2023/12/10 03:12:11;;;;;;;30.57;5.60;;;8.40;1.00;;;;;;5067798;28;20632;-80
2023/12/10 03:14:38;;;;;;;18.50;4.73;;;8.30;1.00;;;;;;5066050;28;20206;-80
2023/12/10 03:17:06;;;;;;;16.30;4.87;;;8.40;1.00;;;;;;5069107;28;20203;-79
2023/12/10 03:19:33;;;;;;;23.20;5.27;;;8.40;1.00;;;;;;5066210;28;20308;-80
2023/12/10 03:22:00;;;;;;;17.30;4.53;;;8.40;1.00;;;;;;5066767;28;20218;-80
2023/12/10 03:24:27;;;;;;;29.27;6.27;;;8.40;1.00;;;;;;5070851;28;20202;-80
2023/12/10 03:26:53;;;;;;;25.37;6.57;;;8.50;99.90;;;;;;5066193;28;20309;-79
2023/12/10 03:29:21;;;;;;;20.17;5.57;;;8.50;99.90;;;;;;5066605;28;20222;-79
2023/12/10 03:31:47;;;;;;;22.83;5.43;;;8.60;99.90;;;;;;5070877;28;20225;-79
2023/12/10 03:34:16;;;;;;;21.07;5.67;;;8.50;99.90;;;;;;5069324;28;20203;-80
2023/12/10 03:36:42;;;;;;;22.47;5.50;;;8.60;99.90;;;;;;5068009;28;20276;-80
2023/12/10 03:39:09;;;;;;;21.37;5.67;;;8.50;99.90;;;;;;5069054;28;20201;-80
2023/12/10 03:41:36;;;;;;;28.90;7.27;;;8.60;97.90;;;;;;5066869;28;20305;-80
2023/12/10 03:44:03;;;;;;;26.97;6.20;;;8.60;1.00;;;;;;5069025;28;20281;-80
2023/12/10 03:46:30;;;;;;;27.83;6.97;;;8.60;2.30;;;;;;5059720;28;20195;-80
2023/12/10 03:48:57;;;;;;;19.37;6.50;;;8.60;1.00;;;;;;5055395;28;20221;-79
2023/12/10 03:51:25;;;;;;;26.20;6.03;;;8.60;1.00;;;;;;5063593;28;20745;-79
2023/12/10 03:53:52;;;;;;;26.23;7.50;;;8.50;1.00;;;;;;5060203;28;20198;-79
2023/12/10 03:56:19;;;;;;;22.93;7.27;;;8.60;1.00;;;;;;5056234;28;20208;-81
2023/12/10 03:58:46;;;;;;;20.50;5.30;;;8.70;1.00;;;;;;5070690;28;20202;-79
2023/12/10 04:01:13;;;;;;;24.27;7.13;;;8.70;1.00;;;;;;5060055;28;20325;-79
2023/12/10 04:03:40;;;;;;;22.83;6.47;;;8.70;1.00;;;;;;5063150;28;20290;-79
2023/12/10 04:06:07;;;;;;;18.27;5.53;;;8.60;1.00;;;;;;5067936;28;20242;-80
2023/12/10 04:08:35;;;;;;;19.23;5.10;;;8.60;1.00;;;;;;5065445;28;20209;-80
2023/12/10 04:11:02;;;;;;;19.30;4.80;;;8.50;5.20;;;;;;5062006;28;20226;-81
2023/12/10 04:13:30;;;;;;;19.23;4.77;;;8.60;1.00;;;;;;5065754;28;20297;-80
2023/12/10 04:15:59;;;;;;;17.37;4.57;;;8.60;1.00;;;;;;5064570;28;20206;-80
2023/12/10 04:18:27;;;;;;;15.30;4.47;;;8.60;1.00;;;;;;5069370;28;20226;-79
2023/12/10 04:20:54;;;;;;;19.33;4.67;;;8.60;1.00;;;;;;5064526;28;20637;-79
2023/12/10 04:23:21;;;;;;;22.10;5.53;;;8.50;99.90;;;;;;5066847;28;20397;-79
2023/12/10 04:25:49;;;;;;;22.27;4.73;;;8.50;99.90;;;;;;5063731;28;20237;-80
2023/12/10 04:28:17;;;;;;;20.13;4.30;;;8.60;1.00;;;;;;5070782;28;20202;-80
2023/12/10 04:30:43;;;;;;;20.13;5.87;;;8.50;1.00;;;;;;5065995;28;20305;-82
2023/12/10 04:33:10;;;;;;;16.93;4.27;;;8.50;99.90;;;;;;5066919;28;20291;-81
2023/12/10 04:35:37;;;;;;;18.97;4.53;;;8.50;99.90;;;;;;5070291;28;20229;-80
2023/12/10 04:38:04;;;;;;;13.57;4.00;;;8.40;99.90;;;;;;5064440;28;20237;-80
2023/12/10 04:40:31;;;;;;;16.53;5.00;;;8.40;1.00;;;;;;5068942;28;20300;-81
2023/12/10 04:42:59;;;;;;;18.70;5.27;;;8.40;1.00;;;;;;5066503;28;20218;-83
2023/12/10 04:45:26;;;;;;;21.07;6.37;;;8.30;1.00;;;;;;5062031;28;20201;-80
2023/12/10 04:47:53;;;;;;;18.13;4.67;;;8.40;1.00;;;;;;5068151;28;20201;-80
2023/12/10 04:50:20;;;;;;;22.73;4.93;;;8.40;1.00;;;;;;5069237;28;20567;-79
2023/12/10 04:52:46;;;;;;;12.73;4.17;;;8.40;1.00;;;;;;5060302;28;20205;-80
2023/12/10 04:55:13;;;;;;;14.77;4.00;;;8.30;1.00;;;;;;5067671;28;20206;-79
2023/12/10 04:57:40;;;;;;;18.03;4.27;;;8.30;1.00;;;;;;5060194;28;20209;-80
2023/12/10 05:00:10;;;;;;;14.60;4.03;;;8.30;1.00;;;;;;5062832;28;20252;-80
2023/12/10 05:02:37;;;;;;;12.77;4.30;;;8.30;1.00;;;;;;5057970;28;20228;-82
2023/12/10 05:05:05;;;;;;;15.23;4.80;;;8.30;1.00;;;;;;5064364;28;20292;-79
2023/12/10 05:07:32;;;;;;;14.40;4.87;;;8.30;1.00;;;;;;5061817;28;20688;-79
2023/12/10 05:09:59;;;;;;;15.57;5.23;;;8.40;99.90;;;;;;5071757;28;20886;-79
2023/12/10 05:12:26;;;;;;;17.13;5.27;;;8.40;99.90;;;;;;5068778;28;20241;-79
2023/12/10 05:14:53;;;;;;;16.77;5.07;;;8.40;99.90;;;;;;5069230;28;20267;-78
2023/12/10 05:17:21;;;;;;;15.13;5.27;;;8.40;99.90;;;;;;5066440;28;20242;-80
2023/12/10 05:19:48;;;;;;;17.47;4.80;;;8.40;99.90;;;;;;5065194;28;20218;-79
2023/12/10 05:22:15;;;;;;;21.63;5.60;;;8.50;99.90;;;;;;5069945;28;20736;-81
2023/12/10 05:24:42;;;;;;;15.80;5.20;;;8.50;99.90;;;;;;5068717;28;20638;-79
2023/12/10 05:27:10;;;;;;;13.77;4.47;;;8.40;99.90;;;;;;5068979;28;20252;-78
2023/12/10 05:29:37;;;;;;;16.70;5.00;;;8.40;99.90;;;;;;5068846;28;20222;-80
2023/12/10 05:32:04;;;;;;;15.80;4.67;;;8.30;99.90;;;;;;5065459;28;20233;-80
2023/12/10 05:34:33;;;;;;;17.50;4.90;;;8.50;1.00;;;;;;5070261;28;20244;-80
2023/12/10 05:36:59;;;;;;;20.90;4.97;;;8.50;1.00;;;;;;5068444;28;20216;-79
2023/12/10 05:39:26;;;;;;;16.63;5.27;;;8.60;1.00;;;;;;5073068;28;20743;-79
2023/12/10 05:41:53;;;;;;;19.50;4.70;;;8.60;1.00;;;;;;5068881;28;20297;-81
2023/12/10 05:44:20;;;;;;;15.37;4.27;;;8.50;1.00;;;;;;5069324;28;20230;-81
2023/12/10 05:46:47;;;;;;;8.90;2.77;;;8.70;1.00;;;;;;5069853;28;20282;-80
2023/12/10 05:49:14;;;;;;;10.97;3.30;;;8.60;1.00;;;;;;5064734;28;20225;-79
2023/12/10 05:51:42;;;;;;;11.73;3.43;;;8.60;1.00;;;;;;5066518;28;20202;-79
2023/12/10 05:54:09;;;;;;;12.40;3.97;;;8.60;99.90;;;;;;5070141;28;20203;-81
2023/12/10 05:56:35;;;;;;;9.83;3.10;;;8.50;1.00;;;;;;5068365;28;20199;-79
2023/12/10 05:59:03;;;;;;;10.67;2.70;;;8.50;1.00;;;;;;5061436;28;20245;-80
2023/12/10 06:01:29;;;;;;;10.03;3.07;;;8.40;1.00;;;;;;5062414;28;20205;-79
2023/12/10 06:04:00;;;;;;;7.27;2.17;;;8.40;1.00;;;;;;5065042;28;20310;-81
2023/12/10 06:06:27;;;;;;;10.37;2.40;;;8.40;99.90;;;;;;5066017;28;20206;-79
2023/12/10 06:08:55;;;;;;;7.30;2.13;;;8.30;99.90;;;;;;5062164;28;20289;-80
2023/12/10 06:11:22;;;;;;;8.17;2.17;;;8.30;99.90;;;;;;5063997;28;20292;-80
2023/12/10 06:13:49;;;;;;;8.87;2.10;;;8.30;99.90;;;;;;5067366;28;20205;-80
2023/12/10 06:16:17;;;;;;;12.73;4.23;;;8.30;99.90;;;;;;5068864;28;20206;-80
2023/12/10 06:18:43;;;;;;;6.67;2.13;;;8.30;99.90;;;;;;5064711;28;20582;-80
2023/12/10 06:21:11;;;;;;;5.73;1.70;;;8.30;99.90;;;;;;5067517;28;20224;-81
2023/12/10 06:23:38;;;;;;;10.60;2.43;;;8.20;99.90;;;;;;5068390;28;20226;-82
2023/12/10 06:26:06;;;;;;;4.47;1.60;;;8.10;1.00;;;;;;5067985;28;20209;-82
2023/12/10 06:28:33;;;;;;;4.27;1.63;;;8.10;1.00;;;;;;5065524;28;20241;-79
2023/12/10 06:31:00;;;;;;;8.53;2.50;;;8.10;1.00;;;;;;5068259;28;20313;-80
2023/12/10 06:33:27;;;;;;;7.20;2.80;;;8.10;1.00;;;;;;5067158;28;20198;-79
2023/12/10 06:35:54;;;;;;;6.90;2.40;;;8.20;1.00;;;;;;5070304;28;20206;-79
2023/12/10 06:38:21;;;;;;;8.50;3.10;;;8.10;1.00;;;;;;5061984;28;20290;-80
2023/12/10 06:40:48;;;;;;;11.83;3.20;;;8.20;1.00;;;;;;5067119;28;20655;-80
2023/12/10 06:43:16;;;;;;;10.17;3.13;;;8.10;1.00;;;;;;5067192;28;20281;-78
2023/12/10 06:45:43;;;;;;;7.93;2.77;;;8.00;1.00;;;;;;5067001;28;20207;-80
2023/12/10 06:48:10;;;;;;;6.03;2.23;;;8.00;90.00;;;;;;5067767;28;20563;-82
2023/12/10 06:50:37;;;;;;;7.60;2.80;;;7.90;99.90;;;;;;5067092;28;20261;-79
2023/12/10 06:53:04;;;;;;;6.30;2.10;;;7.90;99.90;;;;;;5062186;28;20194;-81
2023/12/10 06:55:31;;;;;;;11.80;3.10;;;7.90;99.90;;;;;;5059100;28;20776;-80
2023/12/10 06:57:58;;;;;;;12.07;3.53;;;7.90;1.00;;;;;;5059966;28;20270;-80
2023/12/10 07:00:26;;;;;;;10.93;2.97;;;7.80;1.00;;;;;;5064558;28;20312;-82
2023/12/10 07:02:53;;;;;;;5.57;2.77;;;7.80;1.00;;;;;;5065504;28;20258;-83
2023/12/10 07:05:20;;;;;;;8.30;4.00;;;7.70;1.00;;;;;;5062321;28;20295;-83
2023/12/10 07:07:47;;;;;;;7.47;2.80;;;7.80;1.00;;;;;;5058884;28;20569;-80
2023/12/10 07:10:14;;;;;;;6.13;2.73;;;7.70;1.00;;;;;;5059616;28;20231;-80
2023/12/10 07:12:41;;;;;;;9.47;3.10;;;7.80;1.00;;;;;;5070681;28;20244;-80
2023/12/10 07:15:09;;;;;;;8.23;2.67;;;7.70;99.90;;;;;;5066277;28;20195;-81
2023/12/10 07:17:38;;;;;;;7.37;3.23;;;7.70;99.90;;;;;;5071095;28;20203;-80
2023/12/10 07:20:09;;;;;;;9.00;2.80;;;7.60;1.00;;;;;;5067026;28;20744;-80
2023/12/10 07:22:36;;;;;;;10.97;3.40;;;7.60;1.00;;;;;;5066907;28;20673;-81
2023/12/10 07:25:04;;;;;;;7.20;2.73;;;7.60;1.00;;;;;;5067365;28;20628;-79
2023/12/10 07:27:31;;;;;;;7.27;2.97;;;7.60;1.00;;;;;;5068525;28;20213;-80
2023/12/10 07:29:58;;;;;;;5.17;2.47;;;7.60;1.00;;;;;;5067778;28;20218;-80
2023/12/10 07:32:25;;;;;;;8.23;3.23;;;7.70;50.90;;;;;;5064715;28;20647;-80
2023/12/10 07:34:54;;;;;;;7.53;3.00;;;7.70;22.30;;;;;;5066967;28;20234;-80
2023/12/10 07:37:20;;;;;;;6.10;2.30;;;7.60;99.90;;;;;;5062200;28;20669;-80
2023/12/10 07:39:47;;;;;;;8.20;2.60;;;7.70;99.90;;;;;;5070229;28;20305;-80
2023/12/10 07:42:14;;;;;;;7.17;2.67;;;7.60;1.00;;;;;;5071355;28;20225;-79
2023/12/10 07:44:41;;;;;;;3.83;2.07;;;7.60;1.00;;;;;;5064775;28;20258;-79
2023/12/10 07:47:08;;;;;;;9.90;2.47;;;7.70;99.90;;;;;;5067936;28;20712;-79
2023/12/10 07:49:35;;;;;;;5.30;2.90;;;7.60;99.90;;;;;;5067911;28;20664;-82
2023/12/10 07:52:03;;;;;;;8.93;2.57;;;7.70;22.40;;;;;;5072105;28;20710;-80
2023/12/10 07:54:30;;;;;;;6.40;2.63;;;7.70;99.90;;;;;;5067668;28;20195;-79
2023/12/10 07:56:57;;;;;;;5.40;2.53;;;7.80;1.00;;;;;;5063746;28;20296;-82
2023/12/10 07:59:24;;;;;;;5.73;2.50;;;7.70;1.00;;;;;;5065874;28;20260;-80
2023/12/10 08:01:51;;;;;;;4.33;2.10;;;7.80;1.00;;;;;;5058567;28;20202;-80
2023/12/10 08:04:18;;;;;;;10.10;2.60;;;7.80;1.00;;;;;;5066344;28;20254;-80
2023/12/10 08:06:45;;;;;;;5.33;2.47;;;7.80;1.00;;;;;;5064154;28;20580;-80
2023/12/10 08:09:13;;;;;;;8.87;2.47;;;7.80;1.00;;;;;;5062477;28;20603;-80
2023/12/10 08:11:40;;;;;;;6.27;2.53;;;7.80;1.00;;;;;;5065326;28;20208;-80
2023/12/10 08:14:09;;;;;;;8.87;2.40;;;7.80;1.00;;;;;;5064870;28;20199;-80
2023/12/10 08:16:36;;;;;;;7.90;2.70;;;7.90;99.90;;;;;;5066467;28;20289;-80
2023/12/10 08:19:03;;;;;;;6.10;3.13;;;7.90;1.00;;;;;;5065303;28;20230;-80
2023/12/10 08:21:29;;;;;;;7.37;2.10;;;7.90;1.00;;;;;;5062909;28;20238;-79
2023/12/10 08:23:56;;;;;;;7.97;2.50;;;7.90;1.00;;;;;;5065094;28;20301;-80
2023/12/10 08:26:25;;;;;;;11.27;2.90;;;7.90;1.00;;;;;;5054366;28;20301;-81
2023/12/10 08:28:51;;;;;;;7.43;2.87;;;7.90;1.00;;;;;;5061452;28;20289;-81
2023/12/10 08:31:18;;;;;;;7.63;3.33;;;7.90;1.00;;;;;;5062332;28;20265;-81
2023/12/10 08:33:46;;;;;;;7.63;3.20;;;7.90;1.00;;;;;;5058587;28;20215;-81
2023/12/10 08:36:13;;;;;;;9.10;2.80;;;7.90;1.00;;;;;;5060511;28;20207;-82
2023/12/10 08:38:40;;;;;;;7.53;3.40;;;7.90;99.90;;;;;;5063582;28;20790;-80
2023/12/10 08:41:08;;;;;;;7.87;3.20;;;8.00;99.90;;;;;;5067951;28;20242;-80
2023/12/10 08:43:37;;;;;;;3.80;2.23;;;8.00;99.90;;;;;;5063585;28;20295;-82
2023/12/10 08:46:04;;;;;;;9.90;2.67;;;7.90;1.00;;;;;;5068479;28;20202;-80
2023/12/10 08:48:31;;;;;;;10.03;3.53;;;7.90;1.00;;;;;;5067321;28;20194;-81
2023/12/10 08:50:58;;;;;;;9.00;3.30;;;7.90;1.00;;;;;;5068867;28;20608;-81
2023/12/10 08:53:24;;;;;;;6.70;3.53;;;7.90;40.60;;;;;;5068121;28;20237;-80
2023/12/10 08:55:52;;;;;;;12.13;3.50;;;7.90;1.00;;;;;;5069111;28;20277;-81
2023/12/10 08:58:19;;;;;;;10.77;3.47;;;8.00;1.00;;;;;;5065332;28;20256;-80
2023/12/10 09:00:47;;;;;;;4.27;2.10;;;8.00;1.00;;;;;;5066549;28;20309;-80
2023/12/10 09:03:14;;;;;;;6.47;2.60;;;8.10;1.00;;;;;;5066060;28;20254;-80
2023/12/10 09:05:41;;;;;;;8.47;3.27;;;8.00;1.00;;;;;;5064021;28;20202;-80
2023/12/10 09:08:07;;;;;;;8.07;2.70;;;8.10;1.00;;;;;;5068067;28;20222;-80
2023/12/10 09:10:35;;;;;;;5.90;2.20;;;8.10;1.00;;;;;;5067568;28;20308;-80
2023/12/10 09:13:01;;;;;;;6.03;2.10;;;8.10;99.90;;;;;;5070499;28;20194;-81
2023/12/10 09:15:28;;;;;;;11.37;2.50;;;8.10;1.00;;;;;;5070235;28;20293;-82
2023/12/10 09:17:56;;;;;;;4.47;2.10;;;8.20;1.00;;;;;;5069703;28;20893;-81
2023/12/10 09:20:23;;;;;;;8.50;2.20;;;8.10;1.00;;;;;;5064973;28;20231;-81
2023/12/10 09:22:50;;;;;;;7.53;2.73;;;8.20;1.00;;;;;;5067910;28;20597;-80
2023/12/10 09:25:17;;;;;;;6.43;2.63;;;8.20;1.00;;;;;;5063348;28;20233;-80
2023/12/10 09:27:44;;;;;;;6.53;2.53;;;8.20;1.00;;;;;;5062330;28;20523;-81
2023/12/10 09:30:11;;;;;;;6.73;2.13;;;8.20;1.00;;;;;;5060571;28;20246;-80
2023/12/10 09:32:40;;;;;;;6.87;2.67;;;8.20;1.00;;;;;;5067130;28;20286;-80
2023/12/10 09:35:09;;;;;;;8.57;2.63;;;8.40;1.00;;;;;;5065966;28;20286;-81
2023/12/10 09:37:37;;;;;;;6.03;2.30;;;8.30;1.00;;;;;;5069012;28;20226;-80
2023/12/10 09:40:05;;;;;;;11.63;2.77;;;8.30;1.00;;;;;;5068513;28;20222;-80
2023/12/10 09:42:32;;;;;;;9.73;3.17;;;8.40;1.00;;;;;;5062873;28;20328;-80
2023/12/10 09:44:59;;;;;;;8.47;3.10;;;8.40;1.00;;;;;;5064767;28;20318;-80
2023/12/10 09:47:27;;;;;;;9.53;2.30;;;8.30;1.00;;;;;;5063504;28;20222;-80
2023/12/10 09:49:55;;;;;;;8.37;2.90;;;8.40;1.00;;;;;;5066787;28;20326;-81
2023/12/10 09:52:24;;;;;;;7.40;2.70;;;8.40;1.00;;;;;;5061737;28;20298;-79
2023/12/10 09:54:53;;;;;;;10.53;2.50;;;8.40;1.00;;;;;;5067296;28;20201;-80
2023/12/10 09:57:20;;;;;;;11.83;2.70;;;8.30;99.90;;;;;;5066628;28;20206;-83
2023/12/10 09:59:47;;;;;;;10.70;2.90;;;8.30;99.90;;;;;;5065620;28;20225;-80
2023/12/10 10:02:15;;;;;;;9.43;2.80;;;8.40;12.70;;;;;;5071924;28;20210;-82
2023/12/10 10:04:43;;;;;;;9.73;2.90;;;8.40;99.90;;;;;;5067867;28;20222;-82
2023/12/10 10:07:10;;;;;;;8.87;2.80;;;8.40;99.90;;;;;;5067043;28;20289;-81
2023/12/10 10:09:38;;;;;;;7.83;3.20;;;8.40;99.90;;;;;;5065648;28;20700;-82
2023/12/10 10:12:07;;;;;;;8.23;2.37;;;8.50;1.00;;;;;;5061430;28;20294;-81
2023/12/10 10:14:34;;;;;;;8.47;3.43;;;8.50;1.00;;;;;;5064714;28;20237;-80
2023/12/10 10:17:01;;;;;;;11.50;2.80;;;8.50;40.70;;;;;;5067384;28;20249;-81
2023/12/10 10:19:28;;;;;;;9.00;3.27;;;8.50;99.90;;;;;;5072914;28;20724;-80
2023/12/10 10:21:55;;;;;;;15.67;3.20;;;8.40;99.90;;;;;;5069783;28;20723;-83
2023/12/10 10:24:22;;;;;;;8.93;2.77;;;8.40;1.00;;;;;;5064434;28;20218;-81
2023/12/10 10:26:50;;;;;;;14.23;3.73;;;8.40;1.00;;;;;;5063515;28;20293;-80
2023/12/10 10:29:17;;;;;;;11.87;3.50;;;8.40;1.00;;;;;;5062757;28;20724;-80
2023/12/10 10:31:47;;;;;;;11.07;3.93;;;8.50;1.00;;;;;;5062949;28;20237;-81
2023/12/10 10:34:15;;;;;;;13.97;4.63;;;8.30;1.00;;;;;;5058636;28;20293;-80
2023/12/10 10:36:42;;;;;;;9.43;3.13;;;8.40;1.00;;;;;;5071254;28;20245;-80
2023/12/10 10:39:09;;;;;;;14.20;3.80;;;8.40;1.00;;;;;;5059382;28;20226;-80
2023/12/10 10:41:36;;;;;;;16.33;3.30;;;8.40;1.00;;;;;;5063373;28;20237;-81
2023/12/10 10:44:05;;;;;;;7.00;2.70;;;8.30;1.00;;;;;;5064041;28;20223;-82
2023/12/10 10:46:33;;;;;;;12.43;3.80;;;8.30;1.00;;;;;;5060571;28;20234;-81
2023/12/10 10:49:00;;;;;;;9.43;3.10;;;8.40;99.90;;;;;;5064807;28;20239;-81
2023/12/10 10:51:30;;;;;;;9.27;2.57;;;8.30;99.90;;;;;;5063884;28;20701;-82
2023/12/10 10:53:59;;;;;;;10.60;2.80;;;8.40;99.90;;;;;;5063398;28;20650;-81
2023/12/10 10:56:26;;;;;;;10.77;2.80;;;8.40;13.90;;;;;;5063630;28;20202;-83
2023/12/10 10:58:53;;;;;;;10.27;2.43;;;8.40;1.00;;;;;;5064656;28;20206;-81
2023/12/10 11:01:41;;;;;;;9.20;2.63;;;8.50;99.90;;;;;;5066139;28;20249;-81
2023/12/10 11:04:12;;;;;;;10.90;2.73;;;8.50;1.00;;;;;;5064675;28;20222;-81
2023/12/10 11:06:40;;;;;;;8.13;3.40;;;8.50;1.00;;;;;;5067395;28;20209;-82
2023/12/10 11:09:07;;;;;;;9.97;3.07;;;8.50;1.00;;;;;;5068523;28;20207;-81
2023/12/10 11:11:41;;;;;;;11.47;3.10;;;8.60;1.00;;;;;;5067587;28;20546;-80
2023/12/10 11:14:20;;;;;;;9.93;2.87;;;8.60;99.90;;;;;;5067443;28;20230;-80
2023/12/10 11:16:51;;;;;;;11.00;2.40;;;8.60;99.90;;;;;;5069297;28;20293;-79
2023/12/10 11:19:21;;;;;;;5.17;1.80;;;8.60;99.90;;;;;;5069743;28;20240;-83
2023/12/10 11:21:50;;;;;;;11.27;2.60;;;8.60;1.00;;;;;;5063841;28;20211;-80
2023/12/10 11:24:17;;;;;;;7.73;1.90;;;8.60;3.80;;;;;;5066155;28;20249;-81
2023/12/10 11:26:44;;;;;;;11.93;2.87;;;8.60;1.00;;;;;;5060557;28;20211;-80
2023/12/10 11:29:12;;;;;;;10.50;2.50;;;8.60;99.90;;;;;;5064612;28;20203;-80
2023/12/10 11:31:39;;;;;;;10.43;2.10;;;8.60;1.00;;;;;;5066617;28;20217;-80
2023/12/10 11:34:08;;;;;;;9.67;2.77;;;8.60;99.90;;;;;;5069145;28;20645;-80
2023/12/10 11:36:35;;;;;;;9.67;2.23;;;8.70;1.00;;;;;;5063040;28;20226;-81
2023/12/10 11:39:02;;;;;;;10.20;2.10;;;8.70;1.00;;;;;;5060914;28;20226;-80
2023/12/10 11:41:29;;;;;;;8.80;2.70;;;8.60;1.00;;;;;;5064247;28;20625;-81
2023/12/10 11:43:56;;;;;;;14.53;2.70;;;8.60;1.00;;;;;;5062849;28;20289;-79
2023/12/10 11:46:24;;;;;;;9.57;2.70;;;8.60;82.60;;;;;;5064284;28;20226;-80
2023/12/10 11:48:53;;;;;;;12.00;2.50;;;8.60;1.00;;;;;;5063219;28;20609;-80
2023/12/10 11:51:23;;;;;;;7.67;2.60;;;8.60;99.90;;;;;;5068624;28;20666;-80
2023/12/10 11:53:50;;;;;;;7.73;2.00;;;8.60;99.90;;;;;;5061241;28;20285;-82
2023/12/10 11:56:17;;;;;;;13.23;3.30;;;8.70;99.90;;;;;;5062475;28;20206;-80
2023/12/10 11:58:46;;;;;;;10.20;3.30;;;8.50;99.90;;;;;;5063700;28;20206;-81
2023/12/10 12:01:13;;;;;;;11.37;2.87;;;8.50;99.90;;;;;;5066128;28;20249;-81
2023/12/10 12:03:40;;;;;;;9.97;2.40;;;8.50;99.90;;;;;;5066959;28;20258;-81
2023/12/10 12:06:07;;;;;;;8.50;3.20;;;8.50;1.00;;;;;;5068566;28;20246;-82
2023/12/10 12:08:37;;;;;;;10.93;3.40;;;8.40;1.00;;;;;;5067047;28;20206;-81
2023/12/10 12:11:04;;;;;;;9.30;2.83;;;8.50;1.00;;;;;;5067588;28;20307;-81
2023/12/10 12:13:31;;;;;;;7.20;2.83;;;8.40;99.90;;;;;;5068546;28;20237;-80
2023/12/10 12:15:58;;;;;;;10.37;2.90;;;8.40;1.00;;;;;;5066886;28;20198;-79
2023/12/10 12:18:26;;;;;;;11.57;2.87;;;8.40;99.90;;;;;;5069942;28;20286;-80
2023/12/10 12:20:53;;;;;;;11.17;2.77;;;8.50;1.00;;;;;;5061111;28;20329;-80
2023/12/10 12:23:20;;;;;;;11.70;3.17;;;8.50;1.00;;;;;;5064372;28;20233;-80
2023/12/10 12:25:48;;;;;;;8.70;3.00;;;8.50;99.90;;;;;;5060456;28;20286;-79
2023/12/10 12:28:15;;;;;;;9.80;3.23;;;8.40;99.90;;;;;;5060561;28;20301;-80
2023/12/10 12:30:42;;;;;;;10.67;2.93;;;8.50;1.00;;;;;;5064917;28;20287;-80
2023/12/10 12:33:09;;;;;;;8.30;2.77;;;8.50;1.00;;;;;;5064622;28;20228;-81
2023/12/10 12:35:36;;;;;;;6.37;2.80;;;8.60;99.90;;;;;;5055329;28;20629;-79
2023/12/10 12:38:03;;;;;;;7.33;2.63;;;8.50;1.00;;;;;;5065015;28;20241;-80
2023/12/10 12:40:30;;;;;;;12.50;3.20;;;8.60;1.00;;;;;;5065354;28;20219;-80
2023/12/10 12:42:58;;;;;;;15.67;3.30;;;8.60;1.00;;;;;;5059663;28;20298;-80
2023/12/10 12:45:25;;;;;;;11.03;2.60;;;8.70;1.00;;;;;;5065770;28;20245;-82
2023/12/10 12:47:52;;;;;;;11.20;2.60;;;8.70;99.90;;;;;;5057533;28;20234;-81
2023/12/10 12:50:19;;;;;;;9.80;2.70;;;8.80;99.90;;;;;;5059781;28;20230;-82
2023/12/10 12:52:47;;;;;;;9.80;3.20;;;8.80;99.90;;;;;;5059206;28;20256;-80
2023/12/10 12:55:15;;;;;;;10.33;2.77;;;8.90;1.00;;;;;;5061031;28;20281;-81
2023/12/10 12:57:43;;;;;;;7.50;2.70;;;8.90;1.00;;;;;;5064999;28;20202;-81